createdAt,value
2018-12-11T00:00:11.320Z,99.99
2018-12-11T00:01:11.317Z,99.99
2018-12-11T00:02:11.312Z,99.99
2018-12-11T00:03:11.328Z,99.99
2018-12-11T00:04:11.300Z,99.99
2018-12-11T00:05:11.296Z,99.99
2018-12-11T00:06:11.295Z,99.99
2018-12-11T00:07:11.285Z,99.52
2018-12-11T00:08:11.308Z,96.69
2018-12-11T00:09:11.273Z,96.40
2018-12-11T00:10:11.265Z,96.40
2018-12-11T00:11:11.260Z,94.32
2018-12-11T00:12:11.256Z,93.65
2018-12-11T00:13:11.279Z,89.11
2018-12-11T00:14:11.243Z,88.07
2018-12-11T00:15:11.240Z,86.55
2018-12-11T00:16:11.234Z,85.13
2018-12-11T00:17:11.235Z,81.06
2018-12-11T00:18:11.251Z,78.50
2018-12-11T00:19:11.223Z,75.57
2018-12-11T00:20:11.216Z,75.47
2018-12-11T00:21:11.209Z,73.30
2018-12-11T00:22:11.203Z,68.37
2018-12-11T00:23:11.223Z,64.01
2018-12-11T00:24:11.191Z,61.74
2018-12-11T00:25:11.195Z,57.29
2018-12-11T00:26:11.179Z,55.02
2018-12-11T00:27:11.171Z,54.26
2018-12-11T00:28:11.200Z,52.94
2018-12-11T00:29:11.163Z,51.89
2018-12-11T00:30:11.163Z,48.86
2018-12-11T00:31:11.173Z,49.62
2018-12-11T00:32:11.153Z,46.69
2018-12-11T00:33:11.166Z,47.25
2018-12-11T00:34:11.139Z,48.39
2018-12-11T00:35:11.131Z,47.82
2018-12-11T00:36:11.124Z,50.09
2018-12-11T00:37:11.120Z,50.85
2018-12-11T00:38:11.139Z,51.42
2018-12-11T00:39:11.107Z,51.70
2018-12-11T00:40:11.098Z,50.76
2018-12-11T00:41:11.090Z,50.85
2018-12-11T00:42:11.089Z,51.14
2018-12-11T00:43:11.119Z,50.95
2018-12-11T00:44:11.077Z,50.95
2018-12-11T00:45:11.070Z,51.04
2018-12-11T00:46:11.067Z,50.66
2018-12-11T00:47:11.058Z,50.38
2018-12-11T00:48:11.082Z,49.81
2018-12-11T00:49:11.046Z,49.33
2018-12-11T00:50:11.038Z,49.81
2018-12-11T00:51:11.042Z,50.85
2018-12-11T00:52:11.027Z,50.57
2018-12-11T00:53:11.054Z,49.62
2018-12-11T00:54:11.021Z,49.62
2018-12-11T00:55:11.018Z,48.29
2018-12-11T00:56:11.009Z,47.25
2018-12-11T00:57:11.002Z,47.25
2018-12-11T00:58:11.025Z,46.97
2018-12-11T00:59:10.988Z,45.07
2018-12-11T01:00:10.985Z,42.71
2018-12-11T01:01:10.979Z,42.14
2018-12-11T01:02:10.971Z,41.85
2018-12-11T01:03:10.993Z,40.53
2018-12-11T01:04:10.960Z,40.34
2018-12-11T01:05:10.961Z,39.96
2018-12-11T01:06:10.957Z,39.49
2018-12-11T01:07:10.969Z,38.64
2018-12-11T01:08:10.941Z,40.34
2018-12-11T01:09:10.931Z,41.09
2018-12-11T01:10:10.930Z,39.11
2018-12-11T01:11:10.917Z,37.50
2018-12-11T01:12:10.944Z,39.01
2018-12-11T01:13:10.909Z,39.20
2018-12-11T01:14:10.905Z,39.29
2018-12-11T01:15:10.897Z,38.26
2018-12-11T01:16:10.893Z,38.54
2018-12-11T01:17:10.928Z,38.64
2018-12-11T01:18:10.877Z,40.44
2018-12-11T01:19:10.878Z,39.20
2018-12-11T01:20:10.868Z,37.88
2018-12-11T01:21:10.864Z,37.21
2018-12-11T01:22:10.904Z,36.65
2018-12-11T01:23:10.883Z,36.93
2018-12-11T01:24:10.844Z,39.01
2018-12-11T01:25:10.841Z,38.35
2018-12-11T01:26:10.836Z,38.54
2018-12-11T01:27:10.833Z,37.88
2018-12-11T01:28:10.854Z,39.87
2018-12-11T01:29:10.821Z,39.01
2018-12-11T01:30:10.811Z,38.64
2018-12-11T01:31:10.808Z,39.58
2018-12-11T01:32:10.806Z,39.68
2018-12-11T01:33:10.823Z,38.54
2018-12-11T01:34:10.788Z,38.26
2018-12-11T01:35:10.785Z,39.58
2018-12-11T01:36:10.780Z,40.53
2018-12-11T01:37:10.800Z,40.81
2018-12-11T01:38:10.769Z,41.57
2018-12-11T01:39:10.758Z,42.71
2018-12-11T01:40:10.754Z,40.72
2018-12-11T01:41:10.746Z,41.85
2018-12-11T01:42:10.776Z,42.14
2018-12-11T01:43:10.735Z,42.99
2018-12-11T01:44:10.731Z,42.33
2018-12-11T01:45:10.727Z,43.56
2018-12-11T01:46:10.718Z,43.08
2018-12-11T01:47:10.743Z,44.70
2018-12-11T01:48:10.714Z,45.74
2018-12-11T01:49:10.706Z,47.53
2018-12-11T01:50:10.698Z,50.28
2018-12-11T01:51:10.691Z,52.27
2018-12-11T01:52:10.714Z,53.69
2018-12-11T01:53:10.682Z,51.70
2018-12-11T01:54:10.700Z,53.03
2018-12-11T01:55:10.670Z,54.07
2018-12-11T01:56:10.663Z,59.00
2018-12-11T01:57:10.686Z,56.34
2018-12-11T01:58:10.652Z,56.82
2018-12-11T01:59:10.647Z,57.86
2018-12-11T02:00:10.643Z,60.80
2018-12-11T02:01:10.634Z,59.00
2018-12-11T02:02:10.661Z,61.27
2018-12-11T02:03:10.627Z,57.95
2018-12-11T02:04:10.615Z,59.28
2018-12-11T02:05:10.614Z,59.28
2018-12-11T02:06:10.701Z,60.51
2018-12-11T02:07:10.627Z,59.94
2018-12-11T02:08:10.597Z,58.62
2018-12-11T02:09:10.590Z,59.00
2018-12-11T02:10:10.586Z,57.95
2018-12-11T02:11:10.578Z,56.44
2018-12-11T02:12:10.602Z,55.77
2018-12-11T02:13:10.566Z,54.83
2018-12-11T02:14:10.563Z,53.50
2018-12-11T02:15:11.936Z,54.35
2018-12-11T02:16:10.557Z,52.56
2018-12-11T02:17:10.570Z,55.02
2018-12-11T02:18:10.543Z,54.74
2018-12-11T02:19:10.534Z,54.93
2018-12-11T02:20:10.527Z,52.08
2018-12-11T02:21:10.527Z,53.41
2018-12-11T02:22:10.549Z,54.74
2018-12-11T02:23:10.514Z,52.94
2018-12-11T02:24:10.505Z,55.87
2018-12-11T02:25:10.502Z,57.20
2018-12-11T02:26:10.494Z,57.76
2018-12-11T02:27:10.517Z,58.24
2018-12-11T02:28:10.483Z,59.28
2018-12-11T02:29:10.477Z,61.27
2018-12-11T02:30:10.488Z,62.88
2018-12-11T02:31:10.474Z,64.11
2018-12-11T02:32:10.499Z,62.50
2018-12-11T02:33:10.464Z,62.21
2018-12-11T02:34:10.445Z,61.27
2018-12-11T02:35:10.446Z,59.94
2018-12-11T02:36:10.437Z,59.75
2018-12-11T02:37:10.462Z,65.06
2018-12-11T02:38:10.431Z,64.11
2018-12-11T02:39:10.417Z,63.92
2018-12-11T02:40:10.417Z,67.43
2018-12-11T02:41:10.411Z,66.00
2018-12-11T02:51:20.328Z,79.55
2018-12-11T02:52:20.315Z,80.21
2018-12-11T02:53:20.318Z,78.98
2018-12-11T02:54:20.303Z,78.69
2018-12-11T02:55:20.296Z,76.61
2018-12-11T02:56:20.314Z,76.80
2018-12-11T02:57:20.290Z,77.75
2018-12-11T02:58:20.280Z,78.41
2018-12-11T02:59:20.277Z,77.18
2018-12-11T03:00:20.269Z,76.23
2018-12-11T03:01:20.291Z,73.96
2018-12-11T03:02:20.261Z,76.32
2018-12-11T03:03:20.294Z,74.81
2018-12-11T03:04:20.248Z,73.01
2018-12-11T03:05:20.240Z,75.19
2018-12-11T03:06:20.263Z,76.99
2018-12-11T03:07:20.230Z,75.00
2018-12-11T03:08:20.225Z,77.94
2018-12-11T03:09:20.217Z,77.56
2018-12-11T03:10:20.212Z,80.58
2018-12-11T03:11:20.329Z,80.87
2018-12-11T03:12:20.209Z,77.84
2018-12-11T03:13:20.190Z,74.43
2018-12-11T03:14:20.197Z,74.62
2018-12-11T03:15:20.192Z,73.58
2018-12-11T03:16:20.208Z,77.56
2018-12-11T03:17:20.180Z,78.59
2018-12-11T03:18:20.167Z,78.98
2018-12-11T03:19:20.164Z,79.74
2018-12-11T03:20:20.163Z,82.39
2018-12-11T03:21:20.179Z,79.64
2018-12-11T03:22:20.154Z,78.41
2018-12-11T03:23:20.150Z,81.82
2018-12-11T03:24:20.159Z,83.90
2018-12-11T03:25:20.135Z,86.83
2018-12-11T03:26:20.125Z,84.47
2018-12-11T03:27:20.154Z,83.14
2018-12-11T03:28:20.116Z,85.13
2018-12-11T03:29:20.109Z,85.23
2018-12-11T03:30:20.104Z,86.74
2018-12-11T03:31:20.107Z,86.08
2018-12-11T03:32:20.138Z,86.93
2018-12-11T03:33:20.087Z,86.27
2018-12-11T03:34:20.082Z,83.33
2018-12-11T03:35:20.086Z,82.29
2018-12-11T03:36:20.066Z,80.49
2018-12-11T03:37:20.087Z,82.76
2018-12-11T03:38:20.058Z,82.01
2018-12-11T03:39:20.054Z,81.63
2018-12-11T03:40:20.046Z,81.44
2018-12-11T03:41:20.042Z,81.15
2018-12-11T03:42:20.068Z,78.69
2018-12-11T03:43:20.028Z,80.68
2018-12-11T03:44:20.024Z,81.53
2018-12-11T03:45:20.017Z,77.65
2018-12-11T03:46:20.014Z,82.20
2018-12-11T03:47:20.045Z,82.39
2018-12-11T03:48:20.004Z,80.40
2018-12-11T03:49:19.999Z,77.65
2018-12-11T03:50:19.989Z,77.46
2018-12-11T03:51:20.928Z,74.71
2018-12-11T03:52:21.553Z,74.24
2018-12-11T03:53:19.975Z,77.37
2018-12-11T03:54:19.975Z,74.90
2018-12-11T03:55:19.966Z,74.62
2018-12-11T03:56:19.978Z,77.37
2018-12-11T03:57:19.980Z,79.36
2018-12-11T03:58:19.944Z,74.52
2018-12-11T03:59:19.942Z,73.86
2018-12-11T04:00:19.931Z,73.96
2018-12-11T04:01:19.929Z,75.00
2018-12-11T04:02:19.955Z,74.62
2018-12-11T04:03:19.917Z,73.49
2018-12-11T04:04:19.967Z,68.84
2018-12-11T04:05:19.906Z,67.24
2018-12-11T04:06:19.901Z,65.91
2018-12-11T04:07:19.925Z,68.08
2018-12-11T04:08:19.888Z,67.14
2018-12-11T04:09:19.883Z,66.19
2018-12-11T04:10:19.882Z,67.33
2018-12-11T04:11:19.878Z,71.59
2018-12-11T04:12:19.897Z,69.22
2018-12-11T04:13:19.862Z,69.32
2018-12-11T04:14:19.853Z,71.21
2018-12-11T04:15:19.853Z,68.37
2018-12-11T04:16:19.845Z,69.13
2018-12-11T04:17:19.876Z,71.78
2018-12-11T04:18:19.836Z,74.43
2018-12-11T04:19:19.829Z,74.62
2018-12-11T04:20:19.827Z,74.81
2018-12-11T04:21:19.825Z,71.40
2018-12-11T04:22:19.883Z,71.88
2018-12-11T04:23:19.813Z,72.06
2018-12-11T04:24:19.798Z,68.84
2018-12-11T04:25:19.799Z,67.99
2018-12-11T04:26:19.785Z,68.08
2018-12-11T04:27:19.814Z,70.74
2018-12-11T04:28:19.782Z,71.02
2018-12-11T04:29:19.772Z,73.30
2018-12-11T04:30:19.766Z,71.88
2018-12-11T04:31:19.764Z,69.98
2018-12-11T04:32:19.787Z,67.80
2018-12-11T04:33:19.748Z,69.13
2018-12-11T04:34:19.749Z,67.99
2018-12-11T04:35:19.745Z,67.52
2018-12-11T04:36:19.743Z,67.90
2018-12-11T04:37:19.752Z,64.30
2018-12-11T04:38:19.723Z,67.80
2018-12-11T04:39:19.720Z,68.08
2018-12-11T04:40:19.715Z,64.77
2018-12-11T04:41:19.708Z,71.78
2018-12-11T04:42:19.728Z,70.45
2018-12-11T04:43:19.696Z,73.30
2018-12-11T04:44:19.694Z,68.84
2018-12-11T04:45:19.683Z,71.02
2018-12-11T04:46:19.679Z,71.88
2018-12-11T04:47:19.703Z,73.30
2018-12-11T04:48:19.667Z,74.24
2018-12-11T04:49:19.662Z,75.28
2018-12-11T04:50:19.657Z,75.95
2018-12-11T04:51:19.683Z,78.03
2018-12-11T04:52:19.650Z,77.18
2018-12-11T04:53:19.645Z,79.93
2018-12-11T04:54:19.642Z,79.74
2018-12-11T04:55:19.630Z,76.32
2018-12-11T04:56:19.650Z,75.85
2018-12-11T04:57:19.642Z,76.14
2018-12-11T04:58:19.609Z,76.80
2018-12-11T04:59:19.606Z,77.27
2018-12-11T05:00:19.602Z,80.49
2018-12-11T05:01:19.593Z,75.95
2018-12-11T05:02:19.619Z,77.18
2018-12-11T05:03:19.585Z,80.30
2018-12-11T05:04:19.580Z,80.11
2018-12-11T05:05:19.569Z,79.58
2018-12-11T05:06:19.580Z,80.63
2018-12-11T05:07:19.589Z,82.33
2018-12-11T05:08:19.557Z,83.18
2018-12-11T05:09:19.545Z,84.89
2018-12-11T05:10:19.542Z,84.04
2018-12-11T05:11:19.542Z,82.05
2018-12-11T05:12:19.559Z,79.26
2018-12-11T05:13:19.530Z,82.52
2018-12-11T05:14:19.525Z,79.77
2018-12-11T05:15:19.517Z,81.44
2018-12-11T05:16:19.513Z,85.46
2018-12-11T05:17:19.545Z,86.69
2018-12-11T05:18:21.196Z,88.87
2018-12-11T05:19:19.493Z,89.25
2018-12-11T05:20:19.493Z,87.83
2018-12-11T05:21:19.486Z,88.87
2018-12-11T05:22:19.506Z,86.12
2018-12-11T05:23:19.475Z,88.02
2018-12-11T05:24:19.469Z,86.88
2018-12-11T05:25:19.466Z,89.34
2018-12-11T05:26:19.461Z,86.69
2018-12-11T05:27:19.477Z,85.74
2018-12-11T05:28:19.449Z,87.73
2018-12-11T05:29:19.437Z,87.45
2018-12-11T05:30:19.437Z,92.19
2018-12-11T05:31:19.428Z,91.71
2018-12-11T05:32:19.454Z,89.53
2018-12-11T05:33:19.420Z,91.62
2018-12-11T05:34:19.418Z,92.94
2018-12-11T05:35:19.405Z,89.91
2018-12-11T05:36:19.406Z,91.52
2018-12-11T05:37:19.426Z,89.25
2018-12-11T05:38:19.392Z,88.30
2018-12-11T05:39:19.387Z,90.77
2018-12-11T05:40:19.380Z,91.71
2018-12-11T05:41:19.376Z,92.00
2018-12-11T05:45:23.220Z,91.81
2018-12-11T05:46:23.183Z,91.43
2018-12-11T05:47:23.211Z,95.88
2018-12-11T05:48:23.170Z,97.97
2018-12-11T05:49:23.172Z,94.37
2018-12-11T05:50:23.159Z,94.37
2018-12-11T05:51:23.192Z,95.31
2018-12-11T05:52:23.152Z,94.18
2018-12-11T05:53:23.137Z,95.50
2018-12-11T05:54:23.192Z,95.31
2018-12-11T05:55:23.134Z,94.08
2018-12-11T05:56:23.159Z,96.73
2018-12-11T05:57:23.123Z,95.41
2018-12-11T05:58:23.121Z,95.50
2018-12-11T05:59:23.137Z,95.88
2018-12-11T06:00:23.106Z,97.78
2018-12-11T06:01:23.099Z,96.92
2018-12-11T06:02:23.127Z,98.35
2018-12-11T06:03:23.087Z,98.35
2018-12-11T06:04:23.089Z,97.68
2018-12-11T06:05:23.146Z,97.68
2018-12-11T06:06:23.075Z,97.78
2018-12-11T06:07:23.098Z,95.88
2018-12-11T06:08:23.070Z,95.12
2018-12-11T06:09:23.057Z,94.46
2018-12-11T06:10:23.054Z,95.31
2018-12-11T06:11:23.076Z,95.41
2018-12-11T06:12:23.042Z,96.73
2018-12-11T06:13:23.040Z,97.30
2018-12-11T06:14:23.033Z,97.68
2018-12-11T06:15:23.020Z,98.44
2018-12-11T06:16:23.048Z,97.49
2018-12-11T06:17:23.018Z,98.91
2018-12-11T06:18:23.029Z,96.17
2018-12-11T06:19:23.004Z,94.56
2018-12-11T06:20:22.994Z,99.99
2018-12-11T06:21:23.022Z,97.59
2018-12-11T06:22:22.988Z,94.93
2018-12-11T06:23:22.980Z,98.16
2018-12-11T06:24:22.975Z,97.40
2018-12-11T06:25:22.997Z,96.64
2018-12-11T06:26:22.991Z,97.59
2018-12-11T06:27:22.956Z,95.31
2018-12-11T06:28:22.959Z,97.49
2018-12-11T06:29:22.945Z,99.99
2018-12-11T06:30:22.948Z,98.25
2018-12-11T06:31:22.976Z,97.11
2018-12-11T06:32:22.933Z,95.88
2018-12-11T06:33:22.924Z,97.68
2018-12-11T06:34:22.924Z,96.55
2018-12-11T06:35:24.161Z,96.17
2018-12-11T06:36:22.937Z,98.16
2018-12-11T06:37:22.909Z,99.39
2018-12-11T06:38:22.903Z,98.35
2018-12-11T06:39:22.897Z,95.22
2018-12-11T06:40:22.896Z,97.68
2018-12-11T06:41:24.759Z,97.59
2018-12-11T06:42:22.879Z,98.91
2018-12-11T06:43:22.876Z,97.78
2018-12-11T06:44:22.871Z,99.99
2018-12-11T06:45:22.865Z,99.99
2018-12-11T06:46:22.886Z,99.10
2018-12-11T06:47:23.738Z,98.06
2018-12-11T06:48:28.619Z,96.92
2018-12-11T06:49:22.849Z,97.87
2018-12-11T06:50:22.843Z,97.59
2018-12-11T06:51:22.862Z,98.91
2018-12-11T06:52:22.830Z,98.25
2018-12-11T06:53:22.823Z,97.78
2018-12-11T06:54:22.816Z,97.40
2018-12-11T06:55:23.673Z,98.35
2018-12-11T06:56:22.833Z,97.21
2018-12-11T06:57:22.796Z,96.92
2018-12-11T06:58:22.793Z,95.98
2018-12-11T06:59:22.785Z,94.27
2018-12-11T07:00:23.684Z,92.94
2018-12-11T07:01:22.806Z,92.38
2018-12-11T07:02:22.770Z,90.77
2018-12-11T07:03:25.605Z,89.63
2018-12-11T07:04:24.319Z,88.11
2018-12-11T07:05:22.759Z,91.24
2018-12-11T07:06:22.777Z,88.59
2018-12-11T07:07:22.744Z,88.49
2018-12-11T07:08:22.737Z,90.48
2018-12-11T07:09:22.734Z,90.48
2018-12-11T07:10:22.729Z,91.52
2018-12-11T07:11:22.753Z,95.88
2018-12-11T07:12:22.717Z,95.03
2018-12-11T07:13:22.709Z,99.99
2018-12-11T07:14:22.704Z,99.99
2018-12-11T07:15:22.696Z,99.10
2018-12-11T07:16:22.720Z,99.39
2018-12-11T07:17:22.699Z,99.01
2018-12-11T07:18:25.898Z,99.99
2018-12-11T07:19:22.668Z,99.29
2018-12-11T07:20:22.682Z,96.36
2018-12-11T07:21:22.700Z,95.03
2018-12-11T07:22:22.664Z,93.13
2018-12-11T07:23:22.655Z,94.27
2018-12-11T07:24:22.653Z,92.94
2018-12-11T07:25:22.682Z,94.37
2018-12-11T07:26:22.644Z,96.88
2018-12-11T07:27:24.071Z,95.60
2018-12-11T07:28:22.633Z,95.69
2018-12-11T07:29:22.659Z,99.01
2018-12-11T07:30:22.619Z,97.87
2018-12-11T07:31:22.644Z,96.83
2018-12-11T07:32:22.607Z,95.22
2018-12-11T07:33:22.603Z,95.22
2018-12-11T07:34:23.185Z,94.08
2018-12-11T07:35:22.619Z,89.91
2018-12-11T07:36:22.588Z,86.46
2018-12-11T07:37:22.580Z,85.13
2018-12-11T07:38:22.575Z,83.81
2018-12-11T07:39:22.569Z,83.62
2018-12-11T07:40:22.596Z,83.24
2018-12-11T07:41:22.555Z,80.11
2018-12-11T07:42:22.557Z,82.57
2018-12-11T07:43:22.543Z,82.29
2018-12-11T07:44:22.544Z,84.85
2018-12-11T07:45:22.571Z,84.19
2018-12-11T07:46:22.530Z,82.20
2018-12-11T07:47:22.525Z,82.24
2018-12-11T07:48:22.526Z,83.14
2018-12-11T07:49:22.526Z,83.05
2018-12-11T07:50:22.535Z,88.87
2018-12-11T07:51:22.506Z,86.50
2018-12-11T07:52:22.493Z,89.34
2018-12-11T07:53:22.489Z,86.27
2018-12-11T07:54:22.483Z,94.37
2018-12-11T07:55:22.512Z,90.48
2018-12-11T07:56:22.478Z,90.95
2018-12-11T07:57:22.478Z,90.48
2018-12-11T07:58:22.466Z,90.29
2018-12-11T07:59:22.462Z,94.27
2018-12-11T08:00:22.494Z,98.16
2018-12-11T08:01:22.457Z,99.99
2018-12-11T08:02:22.443Z,97.87
2018-12-11T08:03:22.474Z,98.16
2018-12-11T08:04:22.431Z,97.68
2018-12-11T08:05:22.431Z,97.59
2018-12-11T08:06:22.453Z,96.83
2018-12-11T08:07:22.424Z,96.55
2018-12-11T08:08:22.413Z,97.40
2018-12-11T08:09:22.409Z,95.22
2018-12-11T08:10:22.401Z,96.64
2018-12-11T08:11:22.530Z,96.92
2018-12-11T08:12:22.393Z,96.07
2018-12-11T08:13:22.389Z,97.68
2018-12-11T08:14:22.379Z,98.91
2018-12-11T08:15:22.374Z,97.30
2018-12-11T08:16:22.399Z,96.92
2018-12-11T08:17:22.369Z,98.25
2018-12-11T08:18:22.363Z,96.07
2018-12-11T08:19:22.353Z,96.45
2018-12-11T08:20:22.348Z,98.16
2018-12-11T08:21:22.376Z,99.20
2018-12-11T08:22:22.337Z,98.44
2018-12-11T08:23:22.331Z,96.55
2018-12-11T08:24:22.335Z,97.40
2018-12-11T08:25:22.321Z,98.72
2018-12-11T08:26:22.956Z,98.06
2018-12-11T08:27:22.312Z,99.77
2018-12-11T08:28:22.309Z,99.99
2018-12-11T08:29:22.297Z,99.39
2018-12-11T08:30:22.296Z,98.16
2018-12-11T08:31:22.320Z,98.16
2018-12-11T08:32:22.283Z,99.99
2018-12-11T08:33:22.276Z,99.10
2018-12-11T08:34:22.284Z,99.99
2018-12-11T08:35:22.266Z,99.58
2018-12-11T08:36:22.286Z,99.99
2018-12-11T08:37:22.263Z,99.99
2018-12-11T08:38:22.255Z,99.99
2018-12-11T08:39:22.251Z,99.99
2018-12-11T08:40:22.246Z,99.99
2018-12-11T08:41:22.267Z,99.99
2018-12-11T08:42:22.230Z,99.99
2018-12-11T08:43:22.227Z,99.99
2018-12-11T08:44:22.224Z,99.99
2018-12-11T08:45:22.223Z,99.99
2018-12-11T08:46:22.294Z,99.99
2018-12-11T08:47:22.203Z,99.99
2018-12-11T08:48:22.205Z,99.99
2018-12-11T08:49:22.200Z,99.99
2018-12-11T08:50:22.196Z,99.99
2018-12-11T08:51:22.220Z,99.99
2018-12-11T08:52:22.184Z,99.99
2018-12-11T08:53:22.180Z,99.99
2018-12-11T08:54:22.174Z,99.99
2018-12-11T08:55:22.172Z,99.99
2018-12-11T08:56:22.191Z,99.99
2018-12-11T08:57:22.161Z,99.99
2018-12-11T08:58:22.147Z,99.99
2018-12-11T08:59:22.150Z,99.99
2018-12-11T09:00:22.143Z,99.99
2018-12-11T09:01:22.166Z,99.99
2018-12-11T09:02:22.123Z,99.99
2018-12-11T09:03:22.155Z,99.99
2018-12-11T09:04:22.123Z,99.99
2018-12-11T09:05:22.118Z,99.99
2018-12-11T09:06:22.110Z,99.99
2018-12-11T09:07:22.139Z,99.99
2018-12-11T09:08:22.102Z,99.99
2018-12-11T09:09:22.099Z,99.99
2018-12-11T09:10:22.095Z,99.99
2018-12-11T09:11:22.090Z,99.99
2018-12-11T09:12:22.114Z,99.99
2018-12-11T09:13:22.082Z,99.99
2018-12-11T09:14:22.091Z,99.99
2018-12-11T09:15:22.071Z,99.99
2018-12-11T09:16:22.068Z,99.99
2018-12-11T09:17:22.095Z,99.99
2018-12-11T09:18:22.054Z,99.99
2018-12-11T09:19:22.050Z,99.99
2018-12-11T09:20:22.055Z,99.99
2018-12-11T09:21:22.042Z,99.99
2018-12-11T09:22:22.065Z,99.99
2018-12-11T09:23:22.032Z,99.99
2018-12-11T09:24:22.025Z,99.99
2018-12-11T09:25:22.023Z,99.99
2018-12-11T09:26:22.014Z,99.99
2018-12-11T09:27:22.039Z,99.99
2018-12-11T09:28:22.005Z,99.99
2018-12-11T09:29:22.001Z,99.99
2018-12-11T09:30:21.999Z,99.99
2018-12-11T09:31:21.993Z,99.99
2018-12-11T09:32:22.017Z,99.99
2018-12-11T09:33:21.985Z,99.99
2018-12-11T09:34:21.980Z,99.99
2018-12-11T09:35:21.972Z,99.99
2018-12-11T09:36:21.969Z,99.99
2018-12-11T09:37:21.992Z,99.99
2018-12-11T09:38:21.957Z,99.99
2018-12-11T09:39:21.952Z,99.99
2018-12-11T09:40:24.644Z,99.99
2018-12-11T09:41:21.945Z,99.99
2018-12-11T09:42:27.769Z,99.99
2018-12-11T09:43:21.931Z,99.99
2018-12-11T09:44:21.967Z,99.99
2018-12-11T09:45:21.928Z,99.99
2018-12-11T09:46:21.940Z,99.99
2018-12-11T09:47:21.944Z,99.99
2018-12-11T09:48:21.913Z,99.99
2018-12-11T09:49:21.912Z,99.99
2018-12-11T09:50:21.908Z,99.99
2018-12-11T09:51:21.898Z,99.99
2018-12-11T09:52:21.923Z,99.99
2018-12-11T09:53:21.899Z,99.99
2018-12-11T09:54:21.885Z,99.99
2018-12-11T09:55:21.882Z,99.99
2018-12-11T09:56:21.939Z,99.99
2018-12-11T09:57:21.905Z,99.99
2018-12-11T09:58:21.867Z,99.99
2018-12-11T09:59:23.553Z,99.99
2018-12-11T10:00:25.785Z,99.99
2018-12-11T10:01:21.855Z,99.99
2018-12-11T10:02:21.876Z,99.99
2018-12-11T10:03:21.841Z,99.99
2018-12-11T10:04:21.847Z,99.99
2018-12-11T10:05:21.839Z,99.99
2018-12-11T10:06:21.835Z,99.99
2018-12-11T10:07:21.857Z,99.99
2018-12-11T10:08:21.830Z,99.99
2018-12-11T10:09:21.823Z,99.99
2018-12-11T10:10:21.815Z,99.99
2018-12-11T10:11:21.816Z,99.99
2018-12-11T10:12:21.835Z,99.99
2018-12-11T10:13:21.804Z,99.99
2018-12-11T10:14:21.802Z,99.99
2018-12-11T10:15:21.799Z,99.99
2018-12-11T10:16:21.810Z,99.99
2018-12-11T10:17:21.830Z,99.99
2018-12-11T10:18:21.890Z,99.99
2018-12-11T10:19:21.779Z,99.99
2018-12-11T10:20:21.777Z,99.99
2018-12-11T10:21:21.767Z,99.99
2018-12-11T10:22:21.822Z,99.99
2018-12-11T10:23:21.754Z,99.99
2018-12-11T10:24:21.783Z,99.99
2018-12-11T10:25:21.756Z,99.99
2018-12-11T10:26:21.747Z,99.99
2018-12-11T10:27:21.751Z,99.99
2018-12-11T10:28:30.568Z,99.99
2018-12-11T10:29:21.875Z,99.99
2018-12-11T10:30:24.515Z,99.99
2018-12-11T10:31:21.821Z,99.99
2018-12-11T10:32:21.831Z,99.99
2018-12-11T10:33:21.906Z,99.99
2018-12-11T10:34:21.721Z,99.99
2018-12-11T10:35:21.709Z,99.99
2018-12-11T10:36:21.708Z,99.99
2018-12-11T10:37:21.703Z,99.99
2018-12-11T10:38:21.724Z,99.99
2018-12-11T10:39:21.783Z,99.99
2018-12-11T10:40:21.816Z,99.99
2018-12-11T10:41:21.686Z,99.99
2018-12-11T10:42:21.684Z,99.99
2018-12-11T10:43:21.731Z,99.99
2018-12-11T10:44:21.673Z,99.99
2018-12-11T10:45:21.764Z,99.99
2018-12-11T10:46:21.668Z,99.99
2018-12-11T10:47:22.085Z,99.99
2018-12-11T10:48:21.685Z,99.99
2018-12-11T10:49:21.660Z,99.99
2018-12-11T10:50:21.805Z,99.99
2018-12-11T10:51:21.649Z,99.99
2018-12-11T10:52:22.600Z,99.99
2018-12-11T10:53:21.691Z,99.99
2018-12-11T10:54:21.662Z,99.99
2018-12-11T10:55:22.600Z,99.99
2018-12-11T10:56:21.636Z,99.99
2018-12-11T10:57:21.629Z,99.99
2018-12-11T10:58:21.649Z,99.99
2018-12-11T10:59:21.623Z,99.99
2018-12-11T11:00:21.616Z,99.99
2018-12-11T11:01:24.638Z,99.99
2018-12-11T11:02:21.608Z,99.99
2018-12-11T11:03:21.631Z,99.99
2018-12-11T11:04:21.600Z,99.99
2018-12-11T11:05:21.597Z,99.99
2018-12-11T11:06:22.254Z,99.99
2018-12-11T11:07:21.591Z,99.99
2018-12-11T11:08:21.612Z,99.99
2018-12-11T11:09:21.584Z,99.99
2018-12-11T11:10:21.578Z,99.99
2018-12-11T11:11:21.659Z,99.99
2018-12-11T11:12:21.575Z,99.99
2018-12-11T11:13:21.599Z,99.99
2018-12-11T11:14:21.585Z,99.99
2018-12-11T11:15:21.594Z,99.99
2018-12-11T11:16:21.554Z,99.99
2018-12-11T11:17:21.548Z,99.99
2018-12-11T11:18:21.583Z,99.99
2018-12-11T11:19:21.539Z,99.99
2018-12-11T11:20:21.539Z,99.99
2018-12-11T11:21:21.533Z,99.99
2018-12-11T11:22:22.238Z,99.99
2018-12-11T11:23:21.560Z,99.99
2018-12-11T11:24:21.520Z,99.99
2018-12-11T11:25:21.521Z,99.99
2018-12-11T11:26:21.512Z,99.99
2018-12-11T11:27:21.511Z,99.99
2018-12-11T11:28:21.537Z,99.99
2018-12-11T11:29:21.497Z,99.99
2018-12-11T11:30:21.499Z,99.99
2018-12-11T11:31:21.492Z,99.99
2018-12-11T11:32:21.487Z,99.99
2018-12-11T11:33:21.512Z,99.99
2018-12-11T11:34:21.485Z,99.99
2018-12-11T11:35:21.477Z,99.99
2018-12-11T11:36:21.482Z,99.99
2018-12-11T11:37:21.468Z,99.99
2018-12-11T11:38:21.506Z,99.99
2018-12-11T11:39:21.457Z,99.99
2018-12-11T11:40:21.462Z,99.99
2018-12-11T11:41:21.451Z,99.99
2018-12-11T11:42:21.445Z,99.99
2018-12-11T11:43:21.471Z,99.99
2018-12-11T11:44:21.435Z,99.99
2018-12-11T11:45:21.432Z,99.99
2018-12-11T11:46:21.428Z,99.99
2018-12-11T11:47:21.423Z,99.99
2018-12-11T11:48:21.448Z,99.99
2018-12-11T11:49:21.422Z,99.99
2018-12-11T11:50:21.412Z,99.99
2018-12-11T11:51:21.407Z,99.99
2018-12-11T11:52:21.403Z,99.99
2018-12-11T11:53:21.427Z,99.99
2018-12-11T11:54:21.407Z,99.99
2018-12-11T11:55:21.387Z,99.99
2018-12-11T11:56:21.383Z,99.99
2018-12-11T11:57:21.379Z,99.99
2018-12-11T11:58:21.403Z,99.99
2018-12-11T11:59:21.373Z,99.99
2018-12-11T12:00:21.722Z,99.99
2018-12-11T12:01:22.241Z,99.99
2018-12-11T12:02:21.363Z,99.99
2018-12-11T12:03:21.401Z,99.99
2018-12-11T12:04:21.346Z,99.99
2018-12-11T12:05:21.341Z,99.99
2018-12-11T12:06:21.341Z,99.99
2018-12-11T12:07:21.333Z,99.99
2018-12-11T12:08:21.356Z,99.99
2018-12-11T12:09:21.324Z,99.99
2018-12-11T12:10:21.320Z,99.99
2018-12-11T12:11:21.321Z,99.99
2018-12-11T12:12:21.307Z,99.99
2018-12-11T12:13:21.342Z,99.99
2018-12-11T12:14:21.304Z,99.99
2018-12-11T12:15:21.295Z,99.99
2018-12-11T12:16:21.288Z,99.99
2018-12-11T12:17:21.288Z,99.99
2018-12-11T12:18:21.314Z,99.99
2018-12-11T12:19:21.278Z,99.99
2018-12-11T12:20:21.277Z,99.99
2018-12-11T12:21:21.272Z,99.99
2018-12-11T12:22:22.330Z,99.99
2018-12-11T12:23:21.291Z,99.99
2018-12-11T12:24:21.258Z,99.99
2018-12-11T12:25:21.250Z,99.99
2018-12-11T12:26:21.244Z,99.99
2018-12-11T12:27:21.245Z,99.99
2018-12-11T12:28:21.272Z,99.99
2018-12-11T12:29:21.234Z,99.99
2018-12-11T12:30:21.226Z,99.99
2018-12-11T12:31:21.222Z,99.99
2018-12-11T12:32:21.250Z,99.99
2018-12-11T12:33:21.214Z,99.99
2018-12-11T12:34:21.211Z,99.99
2018-12-11T12:35:21.205Z,99.99
2018-12-11T12:36:21.203Z,99.99
2018-12-11T12:37:21.232Z,99.99
2018-12-11T12:38:21.187Z,99.99
2018-12-11T12:39:21.186Z,99.99
2018-12-11T12:40:21.179Z,99.99
2018-12-11T12:41:21.186Z,99.99
2018-12-11T12:42:21.274Z,99.99
2018-12-11T12:43:21.194Z,99.99
2018-12-11T12:44:23.616Z,99.99
2018-12-11T12:45:23.961Z,99.99
2018-12-11T12:46:21.155Z,99.99
2018-12-11T12:47:21.173Z,99.99
2018-12-11T12:48:21.141Z,99.99
2018-12-11T12:49:22.144Z,99.99
2018-12-11T12:50:22.604Z,99.99
2018-12-11T12:51:27.155Z,99.99
2018-12-11T12:52:24.609Z,99.99
2018-12-11T12:53:21.119Z,99.99
2018-12-11T12:54:21.125Z,99.99
2018-12-11T12:55:21.106Z,99.99
2018-12-11T12:56:21.106Z,99.99
2018-12-11T12:57:21.133Z,99.99
2018-12-11T12:58:21.121Z,99.99
2018-12-11T12:59:21.113Z,99.99
2018-12-11T13:00:21.420Z,99.99
2018-12-11T13:01:21.082Z,99.99
2018-12-11T13:02:21.103Z,99.99
2018-12-11T13:03:21.062Z,99.99
2018-12-11T13:04:21.066Z,99.99